Time;durP1;ratioP1;P1;durP2;ratioP2;P2;SDS_P1;SDS_P2;PMS_P1;PMS_P2;Temp;Humidity;BMP_temperature;BMP_pressure;BME280_temperature;BME280_humidity;BME280_pressure;Samples;Min_cycle;Max_cycle;Signal;HPM_P1;HPM_P2
2021/08/14 00:02:21;;;;;;;1.60;0.43;;;22.10;99.90;;;;;;4447036;32;20564;-68
2021/08/14 00:04:47;;;;;;;1.00;0.80;;;22.00;99.90;;;;;;4446642;32;20171;-67
2021/08/14 00:07:12;;;;;;;1.20;0.37;;;22.00;99.90;;;;;;4447176;32;20068;-68
2021/08/14 00:09:38;;;;;;;0.50;0.50;;;22.00;99.90;;;;;;4446356;32;20073;-67
2021/08/14 00:12:05;;;;;;;0.30;0.30;;;21.90;99.90;;;;;;4446335;32;20069;-68
2021/08/14 00:14:31;;;;;;;0.30;0.30;;;21.90;99.90;;;;;;4449949;32;20086;-68
2021/08/14 00:16:56;;;;;;;0.35;0.35;;;21.90;99.90;;;;;;4449094;32;20506;-67
2021/08/14 00:19:22;;;;;;;10.07;0.68;;;21.80;99.90;;;;;;4448363;32;20444;-68
2021/08/14 00:21:47;;;;;;;1.48;0.40;;;21.70;99.90;;;;;;4448418;32;20086;-67
2021/08/14 00:24:13;;;;;;;2.40;0.70;;;21.70;99.90;;;;;;4448694;32;20516;-68
2021/08/14 00:26:39;;;;;;;0.22;0.22;;;21.60;99.90;;;;;;4448553;32;20489;-68
2021/08/14 00:29:04;;;;;;;1.05;0.57;;;21.60;99.90;;;;;;4448415;32;20081;-68
2021/08/14 00:31:30;;;;;;;0.52;0.50;;;21.50;99.90;;;;;;4448531;32;20065;-67
2021/08/14 00:33:56;;;;;;;0.32;0.32;;;21.50;99.90;;;;;;4448483;32;20085;-67
2021/08/14 00:36:21;;;;;;;0.70;0.55;;;21.40;99.90;;;;;;4448316;32;20069;-67
2021/08/14 00:38:47;;;;;;;1.45;0.82;;;21.40;99.90;;;;;;4448438;32;20070;-67
2021/08/14 00:41:13;;;;;;;2.55;1.02;;;21.40;99.90;;;;;;4448562;32;20084;-67
2021/08/14 00:43:39;;;;;;;7.87;0.60;;;21.30;99.90;;;;;;4449498;32;20120;-68
2021/08/14 00:46:06;;;;;;;0.43;0.43;;;21.20;99.90;;;;;;4446269;32;20069;-67
2021/08/14 00:48:31;;;;;;;0.30;0.30;;;21.20;99.90;;;;;;4433545;32;20069;-67
2021/08/14 00:50:58;;;;;;;1.58;1.12;;;21.30;99.90;;;;;;4432896;32;20511;-68
2021/08/14 00:53:24;;;;;;;1.20;0.52;;;21.30;99.90;;;;;;4432977;32;20069;-68
2021/08/14 00:55:51;;;;;;;0.82;0.40;;;21.30;99.90;;;;;;4433523;32;20073;-68
2021/08/14 00:58:17;;;;;;;0.32;0.32;;;21.20;99.90;;;;;;4433968;32;20065;-67
2021/08/14 01:00:43;;;;;;;0.70;0.35;;;21.20;99.90;;;;;;4434488;32;20120;-67
2021/08/14 01:03:09;;;;;;;0.43;0.43;;;21.20;99.90;;;;;;4433048;32;20061;-68
2021/08/14 01:05:37;;;;;;;0.43;0.43;;;21.20;99.90;;;;;;4433684;32;20085;-68
2021/08/14 01:08:04;;;;;;;2.42;0.77;;;21.00;99.90;;;;;;4433340;32;20081;-68
2021/08/14 01:10:31;;;;;;;0.20;0.20;;;21.00;99.90;;;;;;4433234;32;20416;-67
2021/08/14 01:12:56;;;;;;;1.73;0.40;;;20.90;99.90;;;;;;4433679;32;20427;-67
2021/08/14 01:15:22;;;;;;;0.75;0.70;;;20.90;99.90;;;;;;4433003;32;20081;-68
2021/08/14 01:17:48;;;;;;;0.30;0.30;;;20.90;99.90;;;;;;4433179;32;20072;-66
2021/08/14 01:20:14;;;;;;;0.40;0.40;;;20.70;99.90;;;;;;4433868;32;20120;-67
2021/08/14 01:22:40;;;;;;;0.30;0.30;;;20.70;99.90;;;;;;4433482;32;20124;-68
2021/08/14 01:25:07;;;;;;;0.32;0.32;;;20.60;99.90;;;;;;4432514;32;20419;-69
2021/08/14 01:27:35;;;;;;;0.28;0.28;;;20.50;99.90;;;;;;4432603;32;20134;-67
2021/08/14 01:30:03;;;;;;;0.37;0.37;;;20.50;99.90;;;;;;4433216;32;20415;-67
2021/08/14 01:32:29;;;;;;;1.20;0.93;;;20.50;99.90;;;;;;4432219;32;20078;-67
2021/08/14 01:34:54;;;;;;;0.52;0.52;;;20.50;99.90;;;;;;4441807;32;20443;-67
2021/08/14 01:37:20;;;;;;;0.55;0.55;;;20.50;99.90;;;;;;4449183;32;20073;-68
2021/08/14 01:39:46;;;;;;;2.12;1.15;;;20.50;99.90;;;;;;4448129;32;20068;-67
2021/08/14 01:42:11;;;;;;;0.45;0.45;;;20.40;99.90;;;;;;4449350;32;20530;-67
2021/08/14 01:44:37;;;;;;;0.30;0.30;;;20.30;99.90;;;;;;4448772;32;20057;-68
2021/08/14 01:47:04;;;;;;;0.40;0.40;;;20.20;99.90;;;;;;4439694;32;20498;-67
2021/08/14 01:49:29;;;;;;;0.28;0.28;;;20.20;99.90;;;;;;4432629;32;20069;-68
2021/08/14 01:51:55;;;;;;;0.30;0.30;;;20.00;99.90;;;;;;4432445;32;20074;-67
2021/08/14 01:54:21;;;;;;;0.20;0.20;;;20.00;99.90;;;;;;4431755;32;20089;-67
2021/08/14 01:56:48;;;;;;;2.87;0.60;;;19.90;99.90;;;;;;4438946;32;20533;-68
2021/08/14 01:59:13;;;;;;;0.30;0.30;;;19.80;99.90;;;;;;4447700;32;20061;-68
2021/08/14 02:01:39;;;;;;;0.45;0.45;;;19.90;99.90;;;;;;4448519;32;20065;-68
2021/08/14 02:04:06;;;;;;;0.73;0.70;;;19.90;99.90;;;;;;4447321;32;20065;-69
2021/08/14 02:06:31;;;;;;;1.75;0.62;;;19.70;99.90;;;;;;4448016;32;20473;-67
2021/08/14 02:08:57;;;;;;;0.52;0.50;;;19.60;99.90;;;;;;4447898;32;20069;-67
2021/08/14 02:11:28;;;;;;;0.52;0.52;;;19.60;99.90;;;;;;4447641;32;20127;-67
2021/08/14 02:13:54;;;;;;;;;;;19.60;99.90;;;;;;4447844;32;20085;-68
2021/08/14 02:16:20;;;;;;;0.25;0.25;;;19.60;99.90;;;;;;4446891;32;20297;-67
2021/08/14 02:18:45;;;;;;;0.30;0.30;;;19.50;99.90;;;;;;4448471;32;20151;-67
2021/08/14 02:21:11;;;;;;;1.00;0.50;;;19.40;99.90;;;;;;4449115;32;20069;-67
2021/08/14 02:23:37;;;;;;;0.37;0.35;;;19.50;99.90;;;;;;4446945;32;20069;-67
2021/08/14 02:26:04;;;;;;;0.43;0.43;;;19.60;99.90;;;;;;4447610;32;20069;-68
2021/08/14 02:28:30;;;;;;;10.10;2.10;;;19.60;99.90;;;;;;4447373;32;20060;-67
2021/08/14 02:30:57;;;;;;;0.77;0.55;;;19.50;99.90;;;;;;4448213;32;20128;-67
2021/08/14 02:33:23;;;;;;;0.62;0.62;;;19.30;99.90;;;;;;4447110;32;20066;-68
2021/08/14 02:35:49;;;;;;;0.73;0.70;;;19.20;99.90;;;;;;4440328;32;20532;-67
2021/08/14 02:38:15;;;;;;;1.83;0.80;;;19.30;99.90;;;;;;4446909;32;20061;-67
2021/08/14 02:40:41;;;;;;;0.30;0.30;;;19.30;99.90;;;;;;4448343;32;20068;-68
2021/08/14 02:43:06;;;;;;;0.20;0.20;;;19.30;99.90;;;;;;4447542;32;20415;-67
2021/08/14 02:45:33;;;;;;;0.40;0.40;;;19.30;99.90;;;;;;4447082;32;20068;-68
2021/08/14 02:48:00;;;;;;;2.55;0.65;;;19.40;99.90;;;;;;4447368;32;20431;-67
2021/08/14 02:50:27;;;;;;;0.20;0.20;;;19.40;99.90;;;;;;4446844;32;20088;-67
2021/08/14 02:52:53;;;;;;;0.55;0.50;;;19.30;99.90;;;;;;4447114;32;20123;-68
2021/08/14 02:55:18;;;;;;;0.50;0.50;;;19.30;99.90;;;;;;4446647;32;20068;-68
2021/08/14 02:57:44;;;;;;;0.93;0.85;;;19.30;99.90;;;;;;4447878;32;20073;-67
2021/08/14 03:00:10;;;;;;;0.22;0.22;;;19.30;99.90;;;;;;4446529;32;20081;-67
2021/08/14 03:02:35;;;;;;;0.20;0.20;;;19.40;99.90;;;;;;4446873;32;20114;-67
2021/08/14 03:05:01;;;;;;;2.05;1.17;;;19.40;99.90;;;;;;4446807;32;20080;-68
2021/08/14 03:07:26;;;;;;;1.65;1.05;;;19.30;99.90;;;;;;4447312;32;20068;-67
2021/08/14 03:09:51;;;;;;;3.15;0.70;;;19.20;99.90;;;;;;4447343;32;20064;-70
2021/08/14 03:12:17;;;;;;;0.30;0.30;;;19.20;99.90;;;;;;4447742;32;20078;-67
2021/08/14 03:14:42;;;;;;;1.75;0.73;;;19.20;99.90;;;;;;4447475;32;20089;-67
2021/08/14 03:17:08;;;;;;;3.50;1.45;;;19.20;99.90;;;;;;4447548;32;20526;-67
2021/08/14 03:19:33;;;;;;;0.52;0.50;;;19.30;99.90;;;;;;4446814;32;20082;-68
2021/08/14 03:21:59;;;;;;;1.27;0.52;;;19.20;99.90;;;;;;4447021;32;20081;-67
2021/08/14 03:24:25;;;;;;;9.45;0.60;;;19.20;99.90;;;;;;4446743;32;20126;-67
2021/08/14 03:26:51;;;;;;;0.90;0.52;;;19.20;99.90;;;;;;4446818;32;20069;-67
2021/08/14 03:29:16;;;;;;;24.52;0.62;;;19.20;99.90;;;;;;4446702;32;20081;-68
2021/08/14 03:31:42;;;;;;;1.35;0.73;;;19.30;99.90;;;;;;4447038;32;20501;-68
2021/08/14 03:34:07;;;;;;;3.05;0.60;;;19.20;99.90;;;;;;4446787;32;20400;-67
2021/08/14 03:36:33;;;;;;;2.15;0.50;;;19.20;99.90;;;;;;4446145;32;20065;-67
2021/08/14 03:38:59;;;;;;;0.20;0.20;;;19.30;99.90;;;;;;4447003;32;20473;-68
2021/08/14 03:41:24;;;;;;;1.05;0.73;;;19.30;99.90;;;;;;4447096;32;20074;-67
2021/08/14 03:43:49;;;;;;;0.40;0.40;;;19.20;99.90;;;;;;4447612;32;20129;-67
2021/08/14 03:46:15;;;;;;;0.45;0.45;;;19.20;99.90;;;;;;4447222;32;20085;-67
2021/08/14 03:48:40;;;;;;;0.43;0.43;;;19.10;99.90;;;;;;4446963;32;20120;-67
2021/08/14 03:51:06;;;;;;;1.02;0.82;;;19.10;99.90;;;;;;4446509;32;20124;-68
2021/08/14 03:53:32;;;;;;;0.55;0.40;;;19.10;99.90;;;;;;4446582;32;20068;-67
2021/08/14 03:55:57;;;;;;;0.47;0.47;;;19.20;99.90;;;;;;4447405;32;20062;-67
2021/08/14 03:58:23;;;;;;;0.60;0.60;;;19.10;99.90;;;;;;4446809;32;20057;-67
2021/08/14 04:00:48;;;;;;;0.30;0.30;;;19.10;99.90;;;;;;4446136;32;20129;-67
2021/08/14 04:03:14;;;;;;;0.40;0.40;;;19.20;99.90;;;;;;4446801;32;20425;-68
2021/08/14 04:05:39;;;;;;;0.35;0.32;;;19.20;99.90;;;;;;4446439;32;20512;-67
2021/08/14 04:08:05;;;;;;;0.37;0.37;;;19.20;99.90;;;;;;4447000;32;20142;-67
2021/08/14 04:10:30;;;;;;;1.98;0.47;;;19.10;99.90;;;;;;4447276;32;20089;-68
2021/08/14 04:12:56;;;;;;;0.30;0.30;;;19.10;99.90;;;;;;4446586;32;20096;-67
2021/08/14 04:15:21;;;;;;;0.65;0.65;;;19.10;99.90;;;;;;4446763;32;20077;-67
2021/08/14 04:17:47;;;;;;;5.55;1.48;;;19.00;99.90;;;;;;4446431;32;20093;-68
2021/08/14 04:20:13;;;;;;;0.82;0.82;;;19.10;99.90;;;;;;4446452;32;20077;-68
2021/08/14 04:22:39;;;;;;;0.65;0.65;;;19.10;99.90;;;;;;4446522;32;20473;-67
2021/08/14 04:25:05;;;;;;;0.30;0.30;;;19.00;99.90;;;;;;4447203;32;20072;-67
2021/08/14 04:27:30;;;;;;;1.00;0.32;;;18.90;99.90;;;;;;4445911;32;20064;-67
2021/08/14 04:29:56;;;;;;;0.93;0.75;;;18.90;99.90;;;;;;4446670;32;20477;-67
2021/08/14 04:32:22;;;;;;;0.40;0.40;;;18.80;99.90;;;;;;4445908;32;20456;-67
2021/08/14 04:34:48;;;;;;;1.45;0.82;;;18.90;99.90;;;;;;4445851;32;20065;-67
2021/08/14 04:37:14;;;;;;;0.20;0.20;;;18.80;99.90;;;;;;4446216;32;20076;-67
2021/08/14 04:39:40;;;;;;;0.45;0.45;;;18.80;99.90;;;;;;4446678;32;20065;-67
2021/08/14 04:42:05;;;;;;;2.22;0.43;;;18.90;99.90;;;;;;4446170;32;20068;-67
2021/08/14 04:44:31;;;;;;;0.40;0.40;;;18.80;99.90;;;;;;4446347;32;20078;-67
2021/08/14 04:46:59;;;;;;;0.73;0.55;;;18.70;99.90;;;;;;4445775;32;20069;-67
2021/08/14 04:49:25;;;;;;;0.25;0.25;;;18.60;99.90;;;;;;4446077;32;20077;-67
2021/08/14 04:51:51;;;;;;;0.95;0.88;;;18.60;99.90;;;;;;4446225;32;20407;-67
2021/08/14 04:54:16;;;;;;;0.40;0.40;;;18.70;99.90;;;;;;4446221;32;20122;-67
2021/08/14 04:56:42;;;;;;;0.30;0.30;;;18.70;99.90;;;;;;4446155;32;20519;-67
2021/08/14 04:59:07;;;;;;;3.37;1.10;;;18.70;99.90;;;;;;4446760;32;20124;-67
2021/08/14 05:01:33;;;;;;;0.75;0.32;;;18.80;99.90;;;;;;4448875;32;20069;-67
2021/08/14 05:03:58;;;;;;;1.27;0.50;;;18.80;99.90;;;;;;4448384;32;20413;-67
2021/08/14 05:06:24;;;;;;;3.83;0.80;;;18.80;99.90;;;;;;4448587;32;20090;-68
2021/08/14 05:08:49;;;;;;;0.40;0.40;;;18.90;99.90;;;;;;4448833;32;20060;-68
2021/08/14 05:11:15;;;;;;;0.45;0.45;;;18.90;99.90;;;;;;4448781;32;20428;-67
2021/08/14 05:13:40;;;;;;;0.30;0.30;;;19.00;99.90;;;;;;4448880;32;20060;-67
2021/08/14 05:16:06;;;;;;;4.55;1.10;;;19.00;99.90;;;;;;4448390;32;20462;-67
2021/08/14 05:18:32;;;;;;;1.55;0.55;;;19.00;99.90;;;;;;4448911;32;20066;-67
2021/08/14 05:20:57;;;;;;;0.52;0.40;;;19.00;99.90;;;;;;4448645;32;20064;-67
2021/08/14 05:23:22;;;;;;;0.40;0.40;;;19.00;99.90;;;;;;4448678;32;20074;-67
2021/08/14 05:25:48;;;;;;;0.47;0.47;;;19.00;99.90;;;;;;4449045;32;20072;-68
2021/08/14 05:28:13;;;;;;;0.40;0.40;;;19.10;99.90;;;;;;4448910;32;20498;-67
2021/08/14 05:30:39;;;;;;;1.23;0.60;;;19.10;99.90;;;;;;4448878;32;20084;-67
2021/08/14 05:33:04;;;;;;;0.20;0.20;;;19.10;99.90;;;;;;4447865;32;20511;-67
2021/08/14 05:35:30;;;;;;;1.65;1.20;;;19.10;99.90;;;;;;4449125;32;20077;-67
2021/08/14 05:37:55;;;;;;;17.37;0.40;;;19.20;99.90;;;;;;4447692;32;20416;-66
2021/08/14 05:40:21;;;;;;;0.75;0.50;;;19.20;99.90;;;;;;4448027;32;20120;-67
2021/08/14 05:42:46;;;;;;;0.37;0.37;;;19.30;99.90;;;;;;4447862;32;20126;-67
2021/08/14 05:45:12;;;;;;;0.37;0.37;;;19.30;99.90;;;;;;4448178;32;20101;-67
2021/08/14 05:47:37;;;;;;;0.40;0.37;;;19.30;99.90;;;;;;4435269;32;20073;-68
2021/08/14 05:50:03;;;;;;;0.30;0.30;;;19.30;99.90;;;;;;4432040;32;20069;-67
2021/08/14 05:52:29;;;;;;;0.57;0.57;;;19.30;99.90;;;;;;4441457;32;20069;-68
2021/08/14 05:54:54;;;;;;;0.47;0.47;;;19.30;99.90;;;;;;4447633;32;20138;-67
2021/08/14 05:57:20;;;;;;;0.62;0.62;;;19.40;99.90;;;;;;4445563;32;20503;-67
2021/08/14 05:59:45;;;;;;;0.50;0.50;;;19.50;99.90;;;;;;4442823;32;20410;-67
2021/08/14 06:02:11;;;;;;;0.80;0.40;;;19.40;99.90;;;;;;4440998;32;20064;-67
2021/08/14 06:04:36;;;;;;;0.60;0.60;;;19.50;99.90;;;;;;4433267;32;20069;-68
2021/08/14 06:07:02;;;;;;;0.40;0.40;;;19.50;99.90;;;;;;4444024;32;20123;-67
2021/08/14 06:09:28;;;;;;;0.40;0.40;;;19.50;99.90;;;;;;4441534;32;20530;-67
2021/08/14 06:11:53;;;;;;;0.68;0.60;;;19.60;99.90;;;;;;4436620;32;20560;-67
2021/08/14 06:14:19;;;;;;;1.00;0.45;;;19.70;99.90;;;;;;4446925;32;20176;-68
2021/08/14 06:16:44;;;;;;;1.70;0.80;;;19.70;99.90;;;;;;4447666;32;20073;-67
2021/08/14 06:19:10;;;;;;;0.57;0.47;;;19.80;99.90;;;;;;4447997;32;20069;-67
2021/08/14 06:21:35;;;;;;;0.65;0.50;;;19.80;99.90;;;;;;4447577;32;20077;-67
2021/08/14 06:24:01;;;;;;;0.40;0.40;;;19.90;99.90;;;;;;4445079;32;76189;-67
2021/08/14 06:26:27;;;;;;;0.30;0.30;;;19.90;99.90;;;;;;4446110;32;20583;-67
2021/08/14 06:28:52;;;;;;;2.72;0.65;;;19.90;99.90;;;;;;4440814;32;20552;-67
2021/08/14 06:31:18;;;;;;;0.50;0.50;;;19.90;99.90;;;;;;4446861;32;20069;-68
2021/08/14 06:33:44;;;;;;;0.65;0.30;;;19.80;99.90;;;;;;4446849;32;20112;-67
2021/08/14 06:36:11;;;;;;;0.40;0.40;;;19.80;99.90;;;;;;4447067;32;20081;-67
2021/08/14 06:38:36;;;;;;;0.98;0.68;;;19.80;99.90;;;;;;4446573;32;20509;-67
2021/08/14 06:41:02;;;;;;;0.55;0.55;;;19.90;99.90;;;;;;4446624;32;20109;-68
2021/08/14 06:43:28;;;;;;;0.43;0.43;;;20.00;99.90;;;;;;4438803;32;20417;-67
2021/08/14 06:45:54;;;;;;;0.40;0.40;;;20.00;99.90;;;;;;4431656;32;20078;-67
2021/08/14 06:48:19;;;;;;;0.40;0.40;;;20.10;99.90;;;;;;4446438;32;20065;-68
2021/08/14 06:50:45;;;;;;;0.65;0.37;;;20.10;99.90;;;;;;4447568;32;20498;-67
2021/08/14 06:53:10;;;;;;;0.43;0.43;;;20.20;99.90;;;;;;4447984;32;20082;-67
2021/08/14 06:55:36;;;;;;;0.68;0.65;;;20.20;99.90;;;;;;4440119;32;20499;-67
2021/08/14 06:58:01;;;;;;;0.43;0.37;;;20.20;99.90;;;;;;4431666;32;20107;-67
2021/08/14 07:00:27;;;;;;;1.45;0.50;;;20.30;99.90;;;;;;4430560;32;20095;-67
2021/08/14 07:02:53;;;;;;;0.32;0.32;;;20.40;99.90;;;;;;4430662;32;20077;-67
2021/08/14 07:05:18;;;;;;;0.73;0.73;;;20.40;99.90;;;;;;4429755;32;20069;-67
2021/08/14 07:07:44;;;;;;;0.43;0.43;;;20.30;99.90;;;;;;4432028;32;20494;-66
2021/08/14 07:10:10;;;;;;;0.60;0.60;;;20.30;99.90;;;;;;4431879;32;20057;-67
2021/08/14 07:12:35;;;;;;;3.00;0.75;;;20.40;99.90;;;;;;4446337;32;20124;-67
2021/08/14 07:15:01;;;;;;;2.40;0.88;;;20.40;99.90;;;;;;4425820;32;20477;-67
2021/08/14 07:17:26;;;;;;;0.30;0.30;;;20.30;99.90;;;;;;4417369;32;20090;-67
2021/08/14 07:19:52;;;;;;;0.30;0.30;;;20.30;99.90;;;;;;4430724;32;20117;-67
2021/08/14 07:22:18;;;;;;;1.17;0.40;;;20.20;99.90;;;;;;4431560;32;20061;-67
2021/08/14 07:24:43;;;;;;;2.65;0.98;;;20.30;99.90;;;;;;4430118;32;20415;-67
2021/08/14 07:27:09;;;;;;;1.00;0.55;;;20.40;99.90;;;;;;4429849;32;20070;-67
2021/08/14 07:29:34;;;;;;;1.90;1.10;;;20.50;99.90;;;;;;4429637;32;20069;-67
2021/08/14 07:32:00;;;;;;;0.55;0.55;;;20.60;99.90;;;;;;4431172;32;20066;-67
2021/08/14 07:34:25;;;;;;;13.52;0.40;;;20.60;99.90;;;;;;4432346;32;20077;-67
2021/08/14 07:36:51;;;;;;;0.32;0.32;;;20.70;99.90;;;;;;4443171;32;20088;-67
2021/08/14 07:39:17;;;;;;;1.73;0.70;;;20.80;99.90;;;;;;4439224;32;20104;-67
2021/08/14 07:41:43;;;;;;;0.30;0.30;;;20.90;99.90;;;;;;4441532;32;20090;-67
2021/08/14 07:44:08;;;;;;;0.37;0.37;;;20.90;99.90;;;;;;4431714;32;20081;-67
2021/08/14 07:46:34;;;;;;;0.20;0.20;;;21.00;99.90;;;;;;4430891;32;20093;-67
2021/08/14 07:49:00;;;;;;;4.00;1.40;;;21.00;99.90;;;;;;4432253;32;20078;-67
2021/08/14 07:51:25;;;;;;;0.95;0.60;;;21.00;99.90;;;;;;4446573;32;20422;-67
2021/08/14 07:53:51;;;;;;;0.30;0.30;;;21.10;99.90;;;;;;4436798;32;20053;-67
2021/08/14 07:56:16;;;;;;;0.65;0.50;;;21.30;99.90;;;;;;4447089;32;20057;-67
2021/08/14 07:58:42;;;;;;;111.28;3.95;;;21.50;99.90;;;;;;4446982;32;20101;-67
2021/08/14 08:01:07;;;;;;;0.55;0.40;;;21.60;99.90;;;;;;4446609;32;20061;-67
2021/08/14 08:03:33;;;;;;;0.57;0.47;;;21.60;99.90;;;;;;4446598;32;20528;-67
2021/08/14 08:05:58;;;;;;;0.22;0.22;;;21.60;99.90;;;;;;4445608;32;20069;-67
2021/08/14 08:08:24;;;;;;;0.28;0.28;;;21.70;99.90;;;;;;4444515;32;20077;-67
2021/08/14 08:10:49;;;;;;;0.60;0.60;;;21.80;99.90;;;;;;4445164;32;20069;-67
2021/08/14 08:13:15;;;;;;;0.37;0.37;;;21.80;99.90;;;;;;4444584;32;20065;-66
2021/08/14 08:15:41;;;;;;;0.30;0.30;;;21.90;99.90;;;;;;4433322;32;20065;-67
2021/08/14 08:18:07;;;;;;;0.22;0.22;;;22.00;99.90;;;;;;4441429;32;20069;-67
2021/08/14 08:20:32;;;;;;;3.92;0.88;;;22.10;99.90;;;;;;4446443;32;20073;-67
2021/08/14 08:22:58;;;;;;;0.40;0.40;;;22.00;99.90;;;;;;4446238;32;20106;-67
2021/08/14 08:25:24;;;;;;;1.60;1.10;;;22.00;99.90;;;;;;4444848;32;20065;-67
2021/08/14 08:27:50;;;;;;;1.08;0.50;;;22.10;99.90;;;;;;4444608;32;20534;-67
2021/08/14 08:30:18;;;;;;;0.30;0.30;;;22.00;99.90;;;;;;4444223;32;20212;-67
2021/08/14 08:32:45;;;;;;;1.17;0.75;;;22.00;99.90;;;;;;4445098;32;20057;-67
2021/08/14 08:35:13;;;;;;;0.55;0.40;;;21.90;99.90;;;;;;4441237;32;20069;-67
2021/08/14 08:37:39;;;;;;;0.55;0.52;;;21.90;99.90;;;;;;4436546;32;20078;-67
2021/08/14 08:40:06;;;;;;;4.03;0.93;;;22.00;99.90;;;;;;4445338;32;20065;-67
2021/08/14 08:42:31;;;;;;;0.75;0.40;;;22.00;99.90;;;;;;4447249;32;20127;-67
2021/08/14 08:44:58;;;;;;;0.30;0.30;;;22.10;99.90;;;;;;4445394;32;20073;-67
2021/08/14 08:47:28;;;;;;;0.52;0.52;;;22.30;99.90;;;;;;4448407;32;20060;-67
2021/08/14 08:49:56;;;;;;;0.30;0.30;;;22.20;99.10;;;;;;4448331;32;20064;-67
2021/08/14 08:52:22;;;;;;;0.30;0.30;;;22.10;99.70;;;;;;4446363;32;20858;-67
2021/08/14 08:54:49;;;;;;;1.77;1.17;;;22.20;99.90;;;;;;4446815;32;20046;-67
2021/08/14 08:57:15;;;;;;;8.13;0.75;;;22.20;99.70;;;;;;4432892;32;20074;-67
2021/08/14 08:59:40;;;;;;;0.40;0.40;;;22.40;98.80;;;;;;4449737;32;20065;-66
2021/08/14 09:02:24;;;;;;;3.20;0.43;;;22.50;98.90;;;;;;4448149;32;20069;-67
2021/08/14 09:05:09;;;;;;;0.35;0.35;;;22.60;99.00;;;;;;4447719;32;20073;-68
2021/08/14 09:07:35;;;;;;;0.20;0.20;;;22.80;98.80;;;;;;4434120;32;20069;-67
2021/08/14 09:10:02;;;;;;;0.30;0.30;;;22.80;98.30;;;;;;4445207;32;20073;-67
2021/08/14 09:12:41;;;;;;;0.55;0.55;;;22.70;98.50;;;;;;4447826;32;20104;-67
2021/08/14 09:15:16;;;;;;;0.68;0.68;;;22.70;98.80;;;;;;4437875;32;20526;-67
2021/08/14 09:17:42;;;;;;;0.62;0.62;;;23.00;98.90;;;;;;4444291;32;20061;-67
2021/08/14 09:20:13;;;;;;;0.28;0.28;;;23.10;98.10;;;;;;4443867;32;20077;-67
2021/08/14 09:22:43;;;;;;;15.93;0.70;;;23.10;97.70;;;;;;4446000;32;20117;-68
2021/08/14 09:25:11;;;;;;;0.93;0.52;;;23.10;97.60;;;;;;4447564;32;20115;-67
2021/08/14 09:27:59;;;;;;;0.30;0.30;;;23.20;97.40;;;;;;4448720;32;20077;-66
2021/08/14 09:30:50;;;;;;;0.73;0.73;;;23.30;97.50;;;;;;4424460;32;20065;-67
2021/08/14 09:33:26;;;;;;;0.30;0.30;;;23.40;97.70;;;;;;4430830;32;20065;-67
2021/08/14 09:35:56;;;;;;;0.30;0.30;;;23.60;97.30;;;;;;4432525;32;20073;-67
2021/08/14 09:38:22;;;;;;;0.60;0.60;;;23.70;97.00;;;;;;4439952;32;20091;-66
2021/08/14 09:40:47;;;;;;;0.20;0.20;;;23.90;96.50;;;;;;4447568;32;20077;-67
2021/08/14 09:43:14;;;;;;;0.40;0.40;;;24.10;96.10;;;;;;4446708;32;20450;-67
2021/08/14 09:45:54;;;;;;;0.52;0.52;;;24.20;96.10;;;;;;4447963;32;20072;-67
2021/08/14 09:48:21;;;;;;;2.90;0.40;;;24.10;95.60;;;;;;4444941;32;20525;-67
2021/08/14 09:50:47;;;;;;;0.40;0.40;;;24.10;96.20;;;;;;4433054;32;20171;-67
2021/08/14 09:53:18;;;;;;;2.40;1.10;;;24.20;96.50;;;;;;4434816;32;20070;-67
2021/08/14 09:55:45;;;;;;;;;;;24.40;96.50;;;;;;4433011;32;20098;-67
2021/08/14 09:58:15;;;;;;;0.20;0.20;;;24.60;95.80;;;;;;4432700;32;19961;-67
2021/08/14 10:00:43;;;;;;;0.30;0.30;;;24.70;95.50;;;;;;4431590;32;20085;-67
2021/08/14 10:03:11;;;;;;;0.30;0.30;;;24.90;94.70;;;;;;4437312;32;20050;-67
2021/08/14 10:05:36;;;;;;;0.40;0.30;;;24.80;95.30;;;;;;4447607;32;20501;-67
2021/08/14 10:08:03;;;;;;;0.20;0.20;;;25.00;95.70;;;;;;4446126;32;20053;-66
2021/08/14 10:10:29;;;;;;;0.47;0.45;;;24.70;95.30;;;;;;4435078;32;20065;-67
2021/08/14 10:12:57;;;;;;;0.30;0.30;;;24.80;95.20;;;;;;4438848;32;20052;-66
2021/08/14 10:15:23;;;;;;;0.43;0.43;;;24.90;96.10;;;;;;4436028;32;20069;-66
2021/08/14 10:17:49;;;;;;;1.65;0.57;;;24.70;96.00;;;;;;4444319;32;20127;-66
2021/08/14 10:20:15;;;;;;;0.20;0.20;;;24.60;95.00;;;;;;4446000;32;20085;-67
2021/08/14 10:22:41;;;;;;;0.37;0.25;;;24.80;95.50;;;;;;4432123;32;20062;-67
2021/08/14 10:25:14;;;;;;;0.20;0.20;;;25.10;95.20;;;;;;4432959;32;20073;-67
2021/08/14 10:27:59;;;;;;;0.20;0.20;;;25.70;93.90;;;;;;4446668;32;20135;-67
2021/08/14 10:30:46;;;;;;;0.22;0.22;;;25.70;93.20;;;;;;4448925;32;20509;-67
2021/08/14 10:33:31;;;;;;;0.25;0.25;;;25.90;93.60;;;;;;4437277;32;20088;-66
2021/08/14 10:36:18;;;;;;;0.50;0.50;;;25.90;92.80;;;;;;4448001;32;20069;-66
2021/08/14 10:38:47;;;;;;;2.28;0.40;;;25.70;92.60;;;;;;4428335;32;20057;-67
2021/08/14 10:41:13;;;;;;;3.40;0.30;;;26.10;93.30;;;;;;4447807;32;20134;-66
2021/08/14 10:43:58;;;;;;;0.22;0.22;;;26.50;92.30;;;;;;4437994;32;20081;-66
2021/08/14 10:46:45;;;;;;;0.20;0.20;;;26.70;92.00;;;;;;4431154;32;20057;-66
2021/08/14 10:49:14;;;;;;;0.30;0.30;;;26.80;91.40;;;;;;4421707;32;20522;-67
2021/08/14 10:51:51;;;;;;;4.37;0.30;;;26.80;91.00;;;;;;4432119;32;20078;-67
2021/08/14 10:54:41;;;;;;;0.43;0.43;;;26.90;91.40;;;;;;4432426;32;20085;-67
2021/08/14 10:57:09;;;;;;;0.67;0.57;;;27.00;91.60;;;;;;4423964;32;20089;-67
2021/08/14 10:59:38;;;;;;;0.10;0.10;;;27.00;90.70;;;;;;4445914;32;20216;-67
2021/08/14 11:02:09;;;;;;;0.10;0.10;;;26.90;89.70;;;;;;4448081;32;20064;-66
2021/08/14 11:04:46;;;;;;;0.25;0.25;;;26.90;90.10;;;;;;4448796;32;20385;-65
2021/08/14 11:07:21;;;;;;;0.20;0.20;;;26.90;90.30;;;;;;4449135;32;20085;-66
2021/08/14 11:10:04;;;;;;;0.73;0.73;;;27.10;89.70;;;;;;4444707;32;20073;-65
2021/08/14 11:12:40;;;;;;;0.35;0.30;;;27.10;89.40;;;;;;4448341;32;20522;-66
2021/08/14 11:15:28;;;;;;;0.20;0.20;;;27.30;88.00;;;;;;4447548;32;20065;-66
2021/08/14 11:17:57;;;;;;;0.10;0.10;;;27.30;89.20;;;;;;4435866;32;20061;-66
2021/08/14 11:20:26;;;;;;;0.70;0.40;;;27.20;87.80;;;;;;4447465;32;20060;-67
2021/08/14 11:22:54;;;;;;;0.37;0.37;;;27.40;88.40;;;;;;4439999;32;20057;-67
2021/08/14 11:25:24;;;;;;;1.60;0.28;;;27.60;87.60;;;;;;4431716;32;20169;-67
2021/08/14 11:28:08;;;;;;;1.55;0.35;;;28.20;85.70;;;;;;4443312;32;20084;-67
2021/08/14 11:30:38;;;;;;;0.10;0.10;;;28.40;84.80;;;;;;4447943;32;20428;-67
2021/08/14 11:33:06;;;;;;;0.10;0.10;;;28.40;84.60;;;;;;4435904;32;20053;-66
2021/08/14 11:35:34;;;;;;;0.10;0.10;;;28.50;84.20;;;;;;4444972;32;20073;-67
2021/08/14 11:38:02;;;;;;;0.55;0.30;;;28.40;83.10;;;;;;4447864;32;20107;-66
2021/08/14 11:40:32;;;;;;;0.10;0.10;;;28.50;84.10;;;;;;4448373;32;20073;-67
2021/08/14 11:43:08;;;;;;;3.90;0.75;;;28.80;84.20;;;;;;4448094;32;20126;-66
2021/08/14 11:45:36;;;;;;;0.40;0.37;;;29.00;82.20;;;;;;4448509;32;20064;-67
2021/08/14 11:48:05;;;;;;;0.13;0.13;;;29.30;79.90;;;;;;4447158;32;20061;-67
2021/08/14 11:50:41;;;;;;;0.20;0.20;;;29.50;79.20;;;;;;4447450;32;20073;-67
2021/08/14 11:53:09;;;;;;;0.60;0.40;;;29.80;81.50;;;;;;4446878;32;20116;-67
2021/08/14 11:55:35;;;;;;;0.00;0.00;;;30.00;78.70;;;;;;4447031;32;20078;-67
2021/08/14 11:58:02;;;;;;;0.50;0.17;;;30.20;78.90;;;;;;4446763;32;20068;-66
2021/08/14 12:00:30;;;;;;;3.72;1.10;;;30.40;78.60;;;;;;4447331;32;20065;-67
2021/08/14 12:03:14;;;;;;;0.80;0.45;;;30.60;76.60;;;;;;4447933;32;20057;-67
2021/08/14 12:05:48;;;;;;;0.28;0.20;;;30.40;77.60;;;;;;4446338;32;20065;-67
2021/08/14 12:08:31;;;;;;;3.75;0.28;;;30.30;76.70;;;;;;4447370;32;20108;-67
2021/08/14 12:10:59;;;;;;;0.75;0.62;;;30.60;78.70;;;;;;4447701;32;20056;-67
2021/08/14 12:13:24;;;;;;;0.10;0.10;;;30.30;77.70;;;;;;4446088;32;20089;-67
2021/08/14 12:15:50;;;;;;;0.32;0.32;;;30.10;78.90;;;;;;4446370;32;20065;-67
2021/08/14 12:18:33;;;;;;;0.10;0.10;;;29.50;79.20;;;;;;4445847;32;20450;-67
2021/08/14 12:21:00;;;;;;;0.08;0.08;;;29.10;79.40;;;;;;4447479;32;20064;-67
2021/08/14 12:23:28;;;;;;;0.20;0.20;;;28.70;80.40;;;;;;4446259;32;20120;-67
2021/08/14 12:25:57;;;;;;;1.02;0.65;;;28.20;80.40;;;;;;4446941;32;20081;-67
2021/08/14 12:28:29;;;;;;;0.10;0.10;;;28.70;80.60;;;;;;4447709;32;20113;-67
2021/08/14 12:30:56;;;;;;;0.05;0.05;;;29.70;78.90;;;;;;4448329;32;20412;-66
2021/08/14 12:33:25;;;;;;;0.20;0.20;;;30.80;76.40;;;;;;4446992;32;20061;-66
2021/08/14 12:35:55;;;;;;;0.20;0.20;;;30.80;74.40;;;;;;4430926;32;20082;-66
2021/08/14 12:38:21;;;;;;;0.40;0.30;;;30.10;75.00;;;;;;4431799;32;20061;-66
2021/08/14 12:40:46;;;;;;;0.20;0.20;;;30.00;76.10;;;;;;4430785;32;20077;-66
2021/08/14 12:43:16;;;;;;;0.15;0.15;;;30.00;76.30;;;;;;4430885;32;20430;-66
2021/08/14 12:45:42;;;;;;;0.30;0.30;;;30.70;75.50;;;;;;4430341;32;20057;-66
2021/08/14 12:48:09;;;;;;;0.20;0.20;;;31.60;72.90;;;;;;4430837;32;20082;-66
2021/08/14 12:50:36;;;;;;;3.10;1.02;;;31.60;73.00;;;;;;4429593;32;20058;-66